sensor_id;sensor_type;location;lat;lon;timestamp;P1;durP1;ratioP1;P2;durP2;ratioP2
30048;SDS011;16879;50.852;15.602;2022-09-27T00:00:38;11.90;;;10.10;;
30048;SDS011;16879;50.852;15.602;2022-09-27T00:03:08;16.95;;;10.18;;
30048;SDS011;16879;50.852;15.602;2022-09-27T00:05:35;11.07;;;9.15;;
30048;SDS011;16879;50.852;15.602;2022-09-27T00:08:01;14.82;;;8.68;;
30048;SDS011;16879;50.852;15.602;2022-09-27T00:10:27;13.43;;;8.63;;
30048;SDS011;16879;50.852;15.602;2022-09-27T00:12:53;15.90;;;11.00;;
30048;SDS011;16879;50.852;15.602;2022-09-27T00:15:19;16.90;;;10.13;;
30048;SDS011;16879;50.852;15.602;2022-09-27T00:17:45;16.55;;;12.75;;
30048;SDS011;16879;50.852;15.602;2022-09-27T00:20:16;10.25;;;8.70;;
30048;SDS011;16879;50.852;15.602;2022-09-27T00:22:43;13.35;;;10.95;;
30048;SDS011;16879;50.852;15.602;2022-09-27T00:25:10;12.38;;;9.65;;
30048;SDS011;16879;50.852;15.602;2022-09-27T00:27:36;16.17;;;10.05;;
30048;SDS011;16879;50.852;15.602;2022-09-27T00:30:02;13.30;;;9.40;;
30048;SDS011;16879;50.852;15.602;2022-09-27T00:32:28;16.77;;;11.32;;
30048;SDS011;16879;50.852;15.602;2022-09-27T00:34:54;12.55;;;10.05;;
30048;SDS011;16879;50.852;15.602;2022-09-27T00:37:20;14.93;;;10.20;;
30048;SDS011;16879;50.852;15.602;2022-09-27T00:39:46;16.45;;;10.50;;
30048;SDS011;16879;50.852;15.602;2022-09-27T00:42:12;12.05;;;8.85;;
30048;SDS011;16879;50.852;15.602;2022-09-27T00:47:13;17.30;;;10.55;;
30048;SDS011;16879;50.852;15.602;2022-09-27T00:49:46;18.75;;;11.57;;
30048;SDS011;16879;50.852;15.602;2022-09-27T00:52:15;16.83;;;10.90;;
30048;SDS011;16879;50.852;15.602;2022-09-27T00:54:43;17.02;;;10.95;;
30048;SDS011;16879;50.852;15.602;2022-09-27T00:57:10;18.20;;;11.77;;
30048;SDS011;16879;50.852;15.602;2022-09-27T00:59:38;17.38;;;11.20;;
30048;SDS011;16879;50.852;15.602;2022-09-27T01:02:10;13.60;;;11.60;;
30048;SDS011;16879;50.852;15.602;2022-09-27T01:04:36;15.30;;;10.93;;
30048;SDS011;16879;50.852;15.602;2022-09-27T01:07:03;13.15;;;10.52;;
30048;SDS011;16879;50.852;15.602;2022-09-27T01:09:30;11.70;;;9.10;;
30048;SDS011;16879;50.852;15.602;2022-09-27T01:12:00;10.15;;;9.00;;
30048;SDS011;16879;50.852;15.602;2022-09-27T01:31:46;16.20;;;12.85;;
30048;SDS011;16879;50.852;15.602;2022-09-27T01:34:41;12.20;;;9.88;;
30048;SDS011;16879;50.852;15.602;2022-09-27T01:37:01;12.35;;;10.27;;
30048;SDS011;16879;50.852;15.602;2022-09-27T01:39:39;13.00;;;10.05;;
30048;SDS011;16879;50.852;15.602;2022-09-27T01:47:22;16.45;;;11.43;;
30048;SDS011;16879;50.852;15.602;2022-09-27T01:52:28;14.38;;;10.55;;
30048;SDS011;16879;50.852;15.602;2022-09-27T01:55:02;13.90;;;9.55;;
30048;SDS011;16879;50.852;15.602;2022-09-27T01:57:34;14.57;;;11.48;;
30048;SDS011;16879;50.852;15.602;2022-09-27T02:00:03;10.98;;;8.90;;
30048;SDS011;16879;50.852;15.602;2022-09-27T02:02:31;12.73;;;10.73;;
30048;SDS011;16879;50.852;15.602;2022-09-27T02:05:01;13.45;;;10.10;;
30048;SDS011;16879;50.852;15.602;2022-09-27T02:07:32;11.40;;;9.30;;
30048;SDS011;16879;50.852;15.602;2022-09-27T02:10:08;14.68;;;11.57;;
30048;SDS011;16879;50.852;15.602;2022-09-27T02:12:50;11.50;;;9.85;;
30048;SDS011;16879;50.852;15.602;2022-09-27T02:15:22;13.68;;;10.60;;
30048;SDS011;16879;50.852;15.602;2022-09-27T02:18:00;20.52;;;11.82;;
30048;SDS011;16879;50.852;15.602;2022-09-27T02:20:30;17.25;;;11.82;;
30048;SDS011;16879;50.852;15.602;2022-09-27T02:23:06;10.68;;;9.60;;
30048;SDS011;16879;50.852;15.602;2022-09-27T02:30:32;16.13;;;13.48;;
30048;SDS011;16879;50.852;15.602;2022-09-27T02:32:58;16.90;;;12.45;;
30048;SDS011;16879;50.852;15.602;2022-09-27T02:35:26;17.88;;;14.73;;
30048;SDS011;16879;50.852;15.602;2022-09-27T02:37:55;14.57;;;12.45;;
30048;SDS011;16879;50.852;15.602;2022-09-27T02:40:22;13.27;;;10.60;;
30048;SDS011;16879;50.852;15.602;2022-09-27T02:42:50;13.25;;;11.63;;
30048;SDS011;16879;50.852;15.602;2022-09-27T02:45:17;18.95;;;12.63;;
30048;SDS011;16879;50.852;15.602;2022-09-27T02:53:20;17.02;;;11.93;;
30048;SDS011;16879;50.852;15.602;2022-09-27T03:04:01;13.32;;;10.43;;
30048;SDS011;16879;50.852;15.602;2022-09-27T03:06:31;14.00;;;10.45;;
30048;SDS011;16879;50.852;15.602;2022-09-27T03:08:58;13.15;;;11.75;;
30048;SDS011;16879;50.852;15.602;2022-09-27T03:11:24;18.63;;;11.23;;
30048;SDS011;16879;50.852;15.602;2022-09-27T03:13:50;15.05;;;11.35;;
30048;SDS011;16879;50.852;15.602;2022-09-27T03:16:16;13.68;;;10.80;;
30048;SDS011;16879;50.852;15.602;2022-09-27T03:18:42;15.25;;;11.82;;
30048;SDS011;16879;50.852;15.602;2022-09-27T03:21:08;16.60;;;11.27;;
30048;SDS011;16879;50.852;15.602;2022-09-27T03:23:34;12.73;;;9.45;;
30048;SDS011;16879;50.852;15.602;2022-09-27T03:26:00;11.85;;;10.63;;
30048;SDS011;16879;50.852;15.602;2022-09-27T03:28:26;11.80;;;9.05;;
30048;SDS011;16879;50.852;15.602;2022-09-27T03:30:53;10.68;;;9.57;;
30048;SDS011;16879;50.852;15.602;2022-09-27T03:33:19;10.05;;;9.05;;
30048;SDS011;16879;50.852;15.602;2022-09-27T03:35:46;11.57;;;10.38;;
30048;SDS011;16879;50.852;15.602;2022-09-27T03:38:12;14.70;;;11.07;;
30048;SDS011;16879;50.852;15.602;2022-09-27T03:40:38;11.55;;;10.23;;
30048;SDS011;16879;50.852;15.602;2022-09-27T03:43:04;13.25;;;10.75;;
30048;SDS011;16879;50.852;15.602;2022-09-27T03:45:30;10.98;;;9.88;;
30048;SDS011;16879;50.852;15.602;2022-09-27T03:47:56;12.02;;;10.70;;
30048;SDS011;16879;50.852;15.602;2022-09-27T03:50:22;14.65;;;10.93;;
30048;SDS011;16879;50.852;15.602;2022-09-27T03:52:48;10.43;;;9.32;;
30048;SDS011;16879;50.852;15.602;2022-09-27T03:55:14;9.70;;;8.52;;
30048;SDS011;16879;50.852;15.602;2022-09-27T03:57:43;9.10;;;8.07;;
30048;SDS011;16879;50.852;15.602;2022-09-27T04:00:10;12.43;;;10.27;;
30048;SDS011;16879;50.852;15.602;2022-09-27T04:02:37;12.95;;;11.52;;
30048;SDS011;16879;50.852;15.602;2022-09-27T04:05:03;11.13;;;10.02;;
30048;SDS011;16879;50.852;15.602;2022-09-27T04:07:29;10.05;;;8.48;;
30048;SDS011;16879;50.852;15.602;2022-09-27T04:09:55;8.88;;;7.50;;
30048;SDS011;16879;50.852;15.602;2022-09-27T04:12:20;9.98;;;8.82;;
30048;SDS011;16879;50.852;15.602;2022-09-27T04:14:46;12.93;;;8.75;;
30048;SDS011;16879;50.852;15.602;2022-09-27T04:17:13;8.82;;;7.78;;
30048;SDS011;16879;50.852;15.602;2022-09-27T04:19:39;9.15;;;8.27;;
30048;SDS011;16879;50.852;15.602;2022-09-27T04:22:04;11.48;;;10.27;;
30048;SDS011;16879;50.852;15.602;2022-09-27T04:24:30;12.25;;;8.98;;
30048;SDS011;16879;50.852;15.602;2022-09-27T04:26:57;12.98;;;10.80;;
30048;SDS011;16879;50.852;15.602;2022-09-27T04:29:22;10.15;;;7.95;;
30048;SDS011;16879;50.852;15.602;2022-09-27T04:31:48;8.02;;;7.18;;
30048;SDS011;16879;50.852;15.602;2022-09-27T04:34:14;8.80;;;7.05;;
30048;SDS011;16879;50.852;15.602;2022-09-27T04:36:40;13.18;;;8.85;;
30048;SDS011;16879;50.852;15.602;2022-09-27T04:39:07;13.07;;;8.82;;
30048;SDS011;16879;50.852;15.602;2022-09-27T04:41:33;13.27;;;9.95;;
30048;SDS011;16879;50.852;15.602;2022-09-27T04:44:00;11.30;;;8.05;;
30048;SDS011;16879;50.852;15.602;2022-09-27T04:46:26;10.02;;;8.88;;
30048;SDS011;16879;50.852;15.602;2022-09-27T04:48:56;7.55;;;6.68;;
30048;SDS011;16879;50.852;15.602;2022-09-27T04:51:25;13.10;;;9.15;;
30048;SDS011;16879;50.852;15.602;2022-09-27T04:53:52;8.48;;;7.57;;
30048;SDS011;16879;50.852;15.602;2022-09-27T04:56:19;12.10;;;10.02;;
30048;SDS011;16879;50.852;15.602;2022-09-27T04:58:45;8.43;;;7.50;;
30048;SDS011;16879;50.852;15.602;2022-09-27T05:01:11;9.30;;;8.38;;
30048;SDS011;16879;50.852;15.602;2022-09-27T05:03:37;8.68;;;7.60;;
30048;SDS011;16879;50.852;15.602;2022-09-27T05:06:03;8.23;;;6.20;;
30048;SDS011;16879;50.852;15.602;2022-09-27T05:08:29;7.75;;;4.90;;
30048;SDS011;16879;50.852;15.602;2022-09-27T05:10:55;6.82;;;4.63;;
30048;SDS011;16879;50.852;15.602;2022-09-27T05:13:21;7.72;;;5.97;;
30048;SDS011;16879;50.852;15.602;2022-09-27T05:15:46;8.02;;;6.97;;
30048;SDS011;16879;50.852;15.602;2022-09-27T05:18:12;8.90;;;6.57;;
30048;SDS011;16879;50.852;15.602;2022-09-27T05:20:38;8.07;;;5.80;;
30048;SDS011;16879;50.852;15.602;2022-09-27T05:23:04;5.47;;;4.93;;
30048;SDS011;16879;50.852;15.602;2022-09-27T05:25:31;6.25;;;5.30;;
30048;SDS011;16879;50.852;15.602;2022-09-27T05:27:57;7.50;;;6.65;;
30048;SDS011;16879;50.852;15.602;2022-09-27T05:30:26;6.72;;;5.63;;
30048;SDS011;16879;50.852;15.602;2022-09-27T05:32:52;9.05;;;5.82;;
30048;SDS011;16879;50.852;15.602;2022-09-27T05:35:18;7.22;;;6.10;;
30048;SDS011;16879;50.852;15.602;2022-09-27T05:37:52;7.35;;;5.03;;
30048;SDS011;16879;50.852;15.602;2022-09-27T05:40:22;6.35;;;5.57;;
30048;SDS011;16879;50.852;15.602;2022-09-27T05:42:52;4.60;;;4.25;;
30048;SDS011;16879;50.852;15.602;2022-09-27T05:45:18;6.03;;;5.40;;
30048;SDS011;16879;50.852;15.602;2022-09-27T05:47:55;5.10;;;4.57;;
30048;SDS011;16879;50.852;15.602;2022-09-27T05:50:22;9.73;;;5.93;;
30048;SDS011;16879;50.852;15.602;2022-09-27T05:52:49;7.50;;;6.40;;
30048;SDS011;16879;50.852;15.602;2022-09-27T05:55:15;7.85;;;7.13;;
30048;SDS011;16879;50.852;15.602;2022-09-27T05:57:42;8.15;;;5.55;;
30048;SDS011;16879;50.852;15.602;2022-09-27T06:00:08;5.32;;;4.82;;
30048;SDS011;16879;50.852;15.602;2022-09-27T06:02:34;4.63;;;4.22;;
30048;SDS011;16879;50.852;15.602;2022-09-27T06:05:00;8.75;;;6.40;;
30048;SDS011;16879;50.852;15.602;2022-09-27T06:07:29;5.40;;;4.85;;
30048;SDS011;16879;50.852;15.602;2022-09-27T06:09:56;5.93;;;5.22;;
30048;SDS011;16879;50.852;15.602;2022-09-27T06:12:22;6.20;;;5.57;;
30048;SDS011;16879;50.852;15.602;2022-09-27T06:14:48;5.40;;;4.97;;
30048;SDS011;16879;50.852;15.602;2022-09-27T06:17:14;5.53;;;4.97;;
30048;SDS011;16879;50.852;15.602;2022-09-27T06:19:40;6.70;;;4.88;;
30048;SDS011;16879;50.852;15.602;2022-09-27T06:22:06;5.72;;;4.15;;
30048;SDS011;16879;50.852;15.602;2022-09-27T06:24:32;4.05;;;3.72;;
30048;SDS011;16879;50.852;15.602;2022-09-27T06:26:58;7.28;;;4.50;;
30048;SDS011;16879;50.852;15.602;2022-09-27T06:29:24;5.50;;;5.00;;
30048;SDS011;16879;50.852;15.602;2022-09-27T06:31:50;5.50;;;4.47;;
30048;SDS011;16879;50.852;15.602;2022-09-27T06:34:16;6.10;;;4.93;;
30048;SDS011;16879;50.852;15.602;2022-09-27T06:36:42;8.93;;;6.10;;
30048;SDS011;16879;50.852;15.602;2022-09-27T06:39:08;5.90;;;5.20;;
30048;SDS011;16879;50.852;15.602;2022-09-27T06:41:34;8.43;;;7.63;;
30048;SDS011;16879;50.852;15.602;2022-09-27T06:44:01;10.10;;;8.15;;
30048;SDS011;16879;50.852;15.602;2022-09-27T06:46:27;7.95;;;7.15;;
30048;SDS011;16879;50.852;15.602;2022-09-27T06:48:53;2.97;;;2.75;;
30048;SDS011;16879;50.852;15.602;2022-09-27T06:51:20;3.42;;;2.65;;
30048;SDS011;16879;50.852;15.602;2022-09-27T06:53:47;7.82;;;7.00;;
30048;SDS011;16879;50.852;15.602;2022-09-27T06:56:12;5.75;;;5.25;;
30048;SDS011;16879;50.852;15.602;2022-09-27T06:58:38;4.18;;;3.78;;
30048;SDS011;16879;50.852;15.602;2022-09-27T07:01:26;4.28;;;2.88;;
30048;SDS011;16879;50.852;15.602;2022-09-27T07:03:54;2.47;;;2.28;;
30048;SDS011;16879;50.852;15.602;2022-09-27T07:06:20;3.95;;;2.90;;
30048;SDS011;16879;50.852;15.602;2022-09-27T07:08:48;2.83;;;1.98;;
30048;SDS011;16879;50.852;15.602;2022-09-27T07:11:18;2.00;;;1.80;;
30048;SDS011;16879;50.852;15.602;2022-09-27T07:13:44;2.10;;;1.90;;
30048;SDS011;16879;50.852;15.602;2022-09-27T07:16:10;4.30;;;3.20;;
30048;SDS011;16879;50.852;15.602;2022-09-27T07:18:37;3.70;;;2.22;;
30048;SDS011;16879;50.852;15.602;2022-09-27T07:21:04;2.10;;;1.90;;
30048;SDS011;16879;50.852;15.602;2022-09-27T07:23:30;2.05;;;1.90;;
30048;SDS011;16879;50.852;15.602;2022-09-27T07:25:59;2.53;;;2.22;;
30048;SDS011;16879;50.852;15.602;2022-09-27T07:28:28;139.18;;;71.32;;
30048;SDS011;16879;50.852;15.602;2022-09-27T07:30:54;151.82;;;75.32;;
30048;SDS011;16879;50.852;15.602;2022-09-27T07:33:21;78.57;;;40.72;;
30048;SDS011;16879;50.852;15.602;2022-09-27T07:35:47;29.00;;;14.52;;
30048;SDS011;16879;50.852;15.602;2022-09-27T07:38:13;19.55;;;10.32;;
30048;SDS011;16879;50.852;15.602;2022-09-27T07:40:39;14.20;;;7.68;;
30048;SDS011;16879;50.852;15.602;2022-09-27T07:43:05;17.30;;;8.48;;
30048;SDS011;16879;50.852;15.602;2022-09-27T07:45:34;15.50;;;8.05;;
30048;SDS011;16879;50.852;15.602;2022-09-27T07:48:03;22.17;;;11.85;;
30048;SDS011;16879;50.852;15.602;2022-09-27T07:50:33;6.20;;;3.78;;
30048;SDS011;16879;50.852;15.602;2022-09-27T07:52:59;7.03;;;3.85;;
30048;SDS011;16879;50.852;15.602;2022-09-27T07:55:25;7.75;;;5.38;;
30048;SDS011;16879;50.852;15.602;2022-09-27T07:57:50;11.02;;;6.57;;
30048;SDS011;16879;50.852;15.602;2022-09-27T08:00:17;3.03;;;2.38;;
30048;SDS011;16879;50.852;15.602;2022-09-27T08:02:46;4.10;;;2.92;;
30048;SDS011;16879;50.852;15.602;2022-09-27T08:05:12;5.40;;;3.95;;
30048;SDS011;16879;50.852;15.602;2022-09-27T08:07:39;5.45;;;3.88;;
30048;SDS011;16879;50.852;15.602;2022-09-27T08:10:08;6.60;;;4.70;;
30048;SDS011;16879;50.852;15.602;2022-09-27T08:12:34;4.18;;;3.55;;
30048;SDS011;16879;50.852;15.602;2022-09-27T08:15:00;5.38;;;3.80;;
30048;SDS011;16879;50.852;15.602;2022-09-27T08:17:28;5.00;;;3.90;;
30048;SDS011;16879;50.852;15.602;2022-09-27T08:19:55;6.32;;;4.00;;
30048;SDS011;16879;50.852;15.602;2022-09-27T08:22:21;6.38;;;3.90;;
30048;SDS011;16879;50.852;15.602;2022-09-27T08:24:48;8.23;;;6.28;;
30048;SDS011;16879;50.852;15.602;2022-09-27T08:27:14;8.70;;;3.67;;
30048;SDS011;16879;50.852;15.602;2022-09-27T08:29:41;6.47;;;5.10;;
30048;SDS011;16879;50.852;15.602;2022-09-27T08:32:10;10.15;;;8.05;;
30048;SDS011;16879;50.852;15.602;2022-09-27T08:34:36;10.65;;;8.27;;
30048;SDS011;16879;50.852;15.602;2022-09-27T08:37:03;6.50;;;5.88;;
30048;SDS011;16879;50.852;15.602;2022-09-27T08:39:29;8.10;;;7.18;;
30048;SDS011;16879;50.852;15.602;2022-09-27T08:44:43;12.15;;;10.77;;
30048;SDS011;16879;50.852;15.602;2022-09-27T08:47:34;11.32;;;10.10;;
30048;SDS011;16879;50.852;15.602;2022-09-27T08:58:14;3.28;;;2.72;;
30048;SDS011;16879;50.852;15.602;2022-09-27T09:01:11;2.72;;;2.53;;
30048;SDS011;16879;50.852;15.602;2022-09-27T09:03:59;2.78;;;2.58;;
30048;SDS011;16879;50.852;15.602;2022-09-27T09:18:30;5.68;;;5.13;;
30048;SDS011;16879;50.852;15.602;2022-09-27T09:21:19;3.95;;;3.58;;
30048;SDS011;16879;50.852;15.602;2022-09-27T09:26:35;3.25;;;3.00;;
30048;SDS011;16879;50.852;15.602;2022-09-27T09:29:15;3.55;;;2.50;;
30048;SDS011;16879;50.852;15.602;2022-09-27T09:34:32;2.45;;;2.15;;
30048;SDS011;16879;50.852;15.602;2022-09-27T09:37:18;1.80;;;1.70;;
30048;SDS011;16879;50.852;15.602;2022-09-27T09:39:57;1.80;;;1.70;;
30048;SDS011;16879;50.852;15.602;2022-09-27T09:42:34;4.65;;;3.53;;
30048;SDS011;16879;50.852;15.602;2022-09-27T09:45:25;2.60;;;2.35;;
30048;SDS011;16879;50.852;15.602;2022-09-27T09:53:31;1.80;;;1.70;;
30048;SDS011;16879;50.852;15.602;2022-09-27T09:59:02;1.60;;;1.50;;
30048;SDS011;16879;50.852;15.602;2022-09-27T10:01:45;1.38;;;1.27;;
30048;SDS011;16879;50.852;15.602;2022-09-27T10:04:19;1.80;;;1.60;;
30048;SDS011;16879;50.852;15.602;2022-09-27T10:06:48;3.45;;;1.25;;
30048;SDS011;16879;50.852;15.602;2022-09-27T10:09:16;1.67;;;1.58;;
30048;SDS011;16879;50.852;15.602;2022-09-27T10:11:46;2.03;;;1.88;;
30048;SDS011;16879;50.852;15.602;2022-09-27T10:14:13;1.98;;;1.73;;
30048;SDS011;16879;50.852;15.602;2022-09-27T10:16:42;2.17;;;1.83;;
30048;SDS011;16879;50.852;15.602;2022-09-27T10:19:16;1.73;;;1.60;;
30048;SDS011;16879;50.852;15.602;2022-09-27T10:21:51;1.50;;;1.40;;
30048;SDS011;16879;50.852;15.602;2022-09-27T10:24:18;1.73;;;1.40;;
30048;SDS011;16879;50.852;15.602;2022-09-27T10:26:45;1.83;;;1.30;;
30048;SDS011;16879;50.852;15.602;2022-09-27T10:29:16;2.30;;;1.30;;
30048;SDS011;16879;50.852;15.602;2022-09-27T10:31:49;2.50;;;1.50;;
30048;SDS011;16879;50.852;15.602;2022-09-27T10:34:17;0.93;;;0.93;;
30048;SDS011;16879;50.852;15.602;2022-09-27T10:39:45;2.00;;;1.27;;
30048;SDS011;16879;50.852;15.602;2022-09-27T10:42:20;1.48;;;1.38;;
30048;SDS011;16879;50.852;15.602;2022-09-27T10:44:55;1.70;;;1.60;;
30048;SDS011;16879;50.852;15.602;2022-09-27T10:47:22;1.35;;;1.25;;
30048;SDS011;16879;50.852;15.602;2022-09-27T10:49:50;2.38;;;1.20;;
30048;SDS011;16879;50.852;15.602;2022-09-27T10:52:26;1.63;;;1.52;;
30048;SDS011;16879;50.852;15.602;2022-09-27T10:54:53;4.40;;;1.58;;
30048;SDS011;16879;50.852;15.602;2022-09-27T10:57:25;1.70;;;1.60;;
30048;SDS011;16879;50.852;15.602;2022-09-27T11:02:28;2.38;;;2.17;;
30048;SDS011;16879;50.852;15.602;2022-09-27T11:07:38;2.25;;;2.03;;
30048;SDS011;16879;50.852;15.602;2022-09-27T11:10:19;1.52;;;1.42;;
30048;SDS011;16879;50.852;15.602;2022-09-27T11:13:04;1.42;;;1.33;;
30048;SDS011;16879;50.852;15.602;2022-09-27T11:21:47;2.40;;;2.08;;
30048;SDS011;16879;50.852;15.602;2022-09-27T11:30:15;2.38;;;1.90;;
30048;SDS011;16879;50.852;15.602;2022-09-27T11:38:30;2.67;;;2.47;;
30048;SDS011;16879;50.852;15.602;2022-09-27T11:47:01;1.95;;;1.75;;
30048;SDS011;16879;50.852;15.602;2022-09-27T11:55:50;3.20;;;2.05;;
30048;SDS011;16879;50.852;15.602;2022-09-27T11:58:46;3.88;;;1.48;;
30048;SDS011;16879;50.852;15.602;2022-09-27T12:09:33;1.67;;;1.42;;
30048;SDS011;16879;50.852;15.602;2022-09-27T12:12:14;1.85;;;1.42;;
30048;SDS011;16879;50.852;15.602;2022-09-27T12:14:46;6.53;;;5.43;;
30048;SDS011;16879;50.852;15.602;2022-09-27T12:19:46;1.80;;;1.05;;
30048;SDS011;16879;50.852;15.602;2022-09-27T12:22:24;2.22;;;1.60;;
30048;SDS011;16879;50.852;15.602;2022-09-27T12:24:54;5.28;;;2.35;;
30048;SDS011;16879;50.852;15.602;2022-09-27T12:27:24;2.65;;;1.88;;
30048;SDS011;16879;50.852;15.602;2022-09-27T12:30:02;2.85;;;1.52;;
30048;SDS011;16879;50.852;15.602;2022-09-27T12:35:09;1.92;;;1.30;;
30048;SDS011;16879;50.852;15.602;2022-09-27T12:40:43;3.28;;;1.50;;
30048;SDS011;16879;50.852;15.602;2022-09-27T12:43:24;2.25;;;1.60;;
30048;SDS011;16879;50.852;15.602;2022-09-27T12:49:18;4.57;;;2.47;;
30048;SDS011;16879;50.852;15.602;2022-09-27T12:52:04;3.00;;;1.95;;
30048;SDS011;16879;50.852;15.602;2022-09-27T13:00:05;5.47;;;3.03;;
30048;SDS011;16879;50.852;15.602;2022-09-27T13:02:41;3.47;;;2.58;;
30048;SDS011;16879;50.852;15.602;2022-09-27T13:13:55;2.17;;;1.45;;
30048;SDS011;16879;50.852;15.602;2022-09-27T13:16:25;1.92;;;1.77;;
30048;SDS011;16879;50.852;15.602;2022-09-27T13:18:58;2.95;;;2.10;;
30048;SDS011;16879;50.852;15.602;2022-09-27T13:24:30;2.10;;;1.33;;
30048;SDS011;16879;50.852;15.602;2022-09-27T13:30:41;2.38;;;1.65;;
30048;SDS011;16879;50.852;15.602;2022-09-27T13:35:33;4.88;;;2.65;;
30048;SDS011;16879;50.852;15.602;2022-09-27T13:37:59;3.33;;;2.55;;
30048;SDS011;16879;50.852;15.602;2022-09-27T13:40:29;4.47;;;3.65;;
30048;SDS011;16879;50.852;15.602;2022-09-27T13:45:41;4.75;;;3.58;;
30048;SDS011;16879;50.852;15.602;2022-09-27T13:53:34;3.10;;;2.53;;
30048;SDS011;16879;50.852;15.602;2022-09-27T13:56:05;2.53;;;1.95;;
30048;SDS011;16879;50.852;15.602;2022-09-27T13:59:13;18.35;;;14.38;;
30048;SDS011;16879;50.852;15.602;2022-09-27T14:04:44;1.23;;;1.10;;
30048;SDS011;16879;50.852;15.602;2022-09-27T14:07:15;0.60;;;0.60;;
30048;SDS011;16879;50.852;15.602;2022-09-27T14:09:46;2.38;;;1.42;;
30048;SDS011;16879;50.852;15.602;2022-09-27T14:12:20;2.67;;;2.13;;
30048;SDS011;16879;50.852;15.602;2022-09-27T14:14:49;11.00;;;5.68;;
30048;SDS011;16879;50.852;15.602;2022-09-27T14:17:17;4.10;;;2.65;;
30048;SDS011;16879;50.852;15.602;2022-09-27T14:19:43;2.85;;;1.98;;
30048;SDS011;16879;50.852;15.602;2022-09-27T14:22:19;8.40;;;5.75;;
30048;SDS011;16879;50.852;15.602;2022-09-27T14:24:51;5.72;;;3.00;;
30048;SDS011;16879;50.852;15.602;2022-09-27T14:27:19;6.43;;;3.22;;
30048;SDS011;16879;50.852;15.602;2022-09-27T14:29:50;7.70;;;4.50;;
30048;SDS011;16879;50.852;15.602;2022-09-27T14:32:19;3.22;;;1.98;;
30048;SDS011;16879;50.852;15.602;2022-09-27T14:35:32;5.20;;;3.45;;
30048;SDS011;16879;50.852;15.602;2022-09-27T14:38:00;4.90;;;3.38;;
30048;SDS011;16879;50.852;15.602;2022-09-27T14:43:26;3.67;;;2.78;;
30048;SDS011;16879;50.852;15.602;2022-09-27T14:45:56;7.25;;;2.42;;
30048;SDS011;16879;50.852;15.602;2022-09-27T14:48:31;4.43;;;2.70;;
30048;SDS011;16879;50.852;15.602;2022-09-27T14:53:29;71.93;;;31.38;;
30048;SDS011;16879;50.852;15.602;2022-09-27T14:55:57;18.00;;;10.75;;
30048;SDS011;16879;50.852;15.602;2022-09-27T14:58:25;10.95;;;6.95;;
30048;SDS011;16879;50.852;15.602;2022-09-27T15:00:51;10.85;;;8.05;;
30048;SDS011;16879;50.852;15.602;2022-09-27T15:03:19;9.23;;;5.60;;
30048;SDS011;16879;50.852;15.602;2022-09-27T15:05:52;13.88;;;9.32;;
30048;SDS011;16879;50.852;15.602;2022-09-27T15:08:19;18.45;;;11.23;;
30048;SDS011;16879;50.852;15.602;2022-09-27T15:10:49;28.02;;;15.68;;
30048;SDS011;16879;50.852;15.602;2022-09-27T15:13:16;15.75;;;10.30;;
30048;SDS011;16879;50.852;15.602;2022-09-27T15:15:43;7.35;;;5.03;;
30048;SDS011;16879;50.852;15.602;2022-09-27T15:21:10;4.63;;;3.17;;
30048;SDS011;16879;50.852;15.602;2022-09-27T15:23:39;6.20;;;3.67;;
30048;SDS011;16879;50.852;15.602;2022-09-27T15:26:08;5.00;;;2.88;;
30048;SDS011;16879;50.852;15.602;2022-09-27T15:28:35;8.07;;;4.47;;
30048;SDS011;16879;50.852;15.602;2022-09-27T15:31:03;12.52;;;9.40;;
30048;SDS011;16879;50.852;15.602;2022-09-27T15:33:31;8.57;;;6.43;;
30048;SDS011;16879;50.852;15.602;2022-09-27T15:35:59;6.57;;;4.47;;
30048;SDS011;16879;50.852;15.602;2022-09-27T15:40:57;6.25;;;5.10;;
30048;SDS011;16879;50.852;15.602;2022-09-27T15:46:02;6.15;;;3.55;;
30048;SDS011;16879;50.852;15.602;2022-09-27T15:51:42;4.07;;;3.20;;
30048;SDS011;16879;50.852;15.602;2022-09-27T15:54:10;19.75;;;10.88;;
30048;SDS011;16879;50.852;15.602;2022-09-27T15:56:37;27.42;;;14.57;;
30048;SDS011;16879;50.852;15.602;2022-09-27T15:59:04;25.30;;;17.67;;
30048;SDS011;16879;50.852;15.602;2022-09-27T16:01:31;21.85;;;16.30;;
30048;SDS011;16879;50.852;15.602;2022-09-27T16:03:58;20.60;;;14.95;;
30048;SDS011;16879;50.852;15.602;2022-09-27T16:06:24;20.92;;;15.05;;
30048;SDS011;16879;50.852;15.602;2022-09-27T16:08:52;26.30;;;17.38;;
30048;SDS011;16879;50.852;15.602;2022-09-27T16:11:18;26.38;;;18.30;;
30048;SDS011;16879;50.852;15.602;2022-09-27T16:13:44;27.75;;;19.70;;
30048;SDS011;16879;50.852;15.602;2022-09-27T16:16:11;27.52;;;17.13;;
30048;SDS011;16879;50.852;15.602;2022-09-27T16:18:40;41.25;;;24.02;;
30048;SDS011;16879;50.852;15.602;2022-09-27T16:21:06;49.97;;;30.60;;
30048;SDS011;16879;50.852;15.602;2022-09-27T16:23:33;50.97;;;32.90;;
30048;SDS011;16879;50.852;15.602;2022-09-27T16:25:59;51.63;;;33.13;;
30048;SDS011;16879;50.852;15.602;2022-09-27T16:28:25;40.28;;;27.95;;
30048;SDS011;16879;50.852;15.602;2022-09-27T16:30:51;36.88;;;25.50;;
30048;SDS011;16879;50.852;15.602;2022-09-27T16:33:16;33.47;;;22.02;;
30048;SDS011;16879;50.852;15.602;2022-09-27T16:35:42;35.97;;;24.60;;
30048;SDS011;16879;50.852;15.602;2022-09-27T16:38:08;66.13;;;43.35;;
30048;SDS011;16879;50.852;15.602;2022-09-27T16:40:35;46.47;;;32.47;;
30048;SDS011;16879;50.852;15.602;2022-09-27T16:43:01;34.88;;;24.42;;
30048;SDS011;16879;50.852;15.602;2022-09-27T16:45:31;30.85;;;19.52;;
30048;SDS011;16879;50.852;15.602;2022-09-27T16:48:00;16.92;;;12.35;;
30048;SDS011;16879;50.852;15.602;2022-09-27T16:50:26;20.52;;;14.50;;
30048;SDS011;16879;50.852;15.602;2022-09-27T16:53:10;27.45;;;18.35;;
30048;SDS011;16879;50.852;15.602;2022-09-27T16:55:38;25.05;;;18.13;;
30048;SDS011;16879;50.852;15.602;2022-09-27T16:58:03;26.30;;;16.02;;
30048;SDS011;16879;50.852;15.602;2022-09-27T17:00:32;24.70;;;17.83;;
30048;SDS011;16879;50.852;15.602;2022-09-27T17:02:58;20.52;;;14.15;;
30048;SDS011;16879;50.852;15.602;2022-09-27T17:05:24;20.98;;;14.32;;
30048;SDS011;16879;50.852;15.602;2022-09-27T17:07:51;16.95;;;12.55;;
30048;SDS011;16879;50.852;15.602;2022-09-27T17:10:18;18.08;;;13.73;;
30048;SDS011;16879;50.852;15.602;2022-09-27T17:12:44;19.05;;;12.15;;
30048;SDS011;16879;50.852;15.602;2022-09-27T17:15:11;12.60;;;8.75;;
30048;SDS011;16879;50.852;15.602;2022-09-27T17:17:37;14.15;;;9.15;;
30048;SDS011;16879;50.852;15.602;2022-09-27T17:20:03;15.43;;;9.55;;
30048;SDS011;16879;50.852;15.602;2022-09-27T17:22:30;23.85;;;13.80;;
30048;SDS011;16879;50.852;15.602;2022-09-27T17:24:56;22.08;;;13.60;;
30048;SDS011;16879;50.852;15.602;2022-09-27T17:27:24;38.38;;;23.88;;
30048;SDS011;16879;50.852;15.602;2022-09-27T17:29:52;47.67;;;31.23;;
30048;SDS011;16879;50.852;15.602;2022-09-27T17:32:18;62.92;;;34.78;;
30048;SDS011;16879;50.852;15.602;2022-09-27T17:34:51;54.28;;;32.75;;
30048;SDS011;16879;50.852;15.602;2022-09-27T17:37:17;54.28;;;33.25;;
30048;SDS011;16879;50.852;15.602;2022-09-27T17:39:43;61.05;;;37.40;;
30048;SDS011;16879;50.852;15.602;2022-09-27T17:42:09;66.38;;;40.85;;
30048;SDS011;16879;50.852;15.602;2022-09-27T17:44:35;75.18;;;45.05;;
30048;SDS011;16879;50.852;15.602;2022-09-27T17:47:01;76.60;;;45.88;;